Weather at Fairmont Municipal Airport

Public forecast

Using degrees Fahrenheit for public forecast. Weather courtesy of forecast.io.

Current aviation weather report (METAR) for Fairmont Municipal Airport

Report is more than 6 hours old.

Retrieved 2021/03/04 16:56 UTC (7 hours ago):

KFRM 041656Z AUTO 13015KT 10SM CLR 04/00 A3026 RMK AO2 SLP261 T00440000

Closest aviation forecast (TAF) to Fairmont Municipal Airport

Closest forecast is Mankato Regional Airport, 40.8 nm (75.6 km) NNE. Retrieved 2021/03/04 18:21 UTC (6 hours ago):

TAF KMKT 041720Z 0418/0518 12013KT P6SM BKN040 FM042000 12011KT P6SM SCT040 BKN100 FM050100 13004KT P6SM SCT100 FM051700 15003KT P6SM BKN250